Terminal Aerodrome Forecast
Issued by NWS

Home | Current Version | Previous Version | Text Only | Print | Product List | Glossary On
Versions: 1 2 3 4 5 6 7 8 9 10 11 12 13 14 15 16 17
000
FTUS43 KSGF 282300
TAFJLN
TAF
KJLN 282320Z 2900/2924 35005KT P6SM SCT250
     FM290200 VRB05KT P6SM SKC
     FM291600 15005KT P6SM SKC=

USA.gov is the U.S. government's official web portal to all federal, state and local government web resources and services.